sensor_id;sensor_type;location;lat;lon;timestamp;pressure;altitude;pressure_sealevel;temperature
61390;BMP280;47260;48.274;19.814;2023-03-23T00:00:08;99235.09;;;5.12
61390;BMP280;47260;48.274;19.814;2023-03-23T00:01:44;99237.34;;;5.04
61390;BMP280;47260;48.274;19.814;2023-03-23T00:03:16;99235.31;;;4.99
61390;BMP280;47260;48.274;19.814;2023-03-23T00:04:49;99234.56;;;4.99
61390;BMP280;47260;48.274;19.814;2023-03-23T00:06:21;99228.22;;;4.96
61390;BMP280;47260;48.274;19.814;2023-03-23T00:07:53;99236.19;;;4.96
61390;BMP280;47260;48.274;19.814;2023-03-23T00:09:25;99234.28;;;4.97
61390;BMP280;47260;48.274;19.814;2023-03-23T00:10:57;99231.19;;;4.98
61390;BMP280;47260;48.274;19.814;2023-03-23T00:12:31;99232.63;;;4.99
61390;BMP280;47260;48.274;19.814;2023-03-23T00:14:04;99234.41;;;5.02
61390;BMP280;47260;48.274;19.814;2023-03-23T00:15:35;99229.84;;;5.03
61390;BMP280;47260;48.274;19.814;2023-03-23T00:17:11;99234.41;;;5.02
61390;BMP280;47260;48.274;19.814;2023-03-23T00:18:44;99218.44;;;5.02
61390;BMP280;47260;48.274;19.814;2023-03-23T00:20:17;99222.13;;;5.05
61390;BMP280;47260;48.274;19.814;2023-03-23T00:21:48;99224.06;;;5.04
61390;BMP280;47260;48.274;19.814;2023-03-23T00:23:25;99225.72;;;4.93
61390;BMP280;47260;48.274;19.814;2023-03-23T00:24:58;99223.09;;;4.83
61390;BMP280;47260;48.274;19.814;2023-03-23T00:26:29;99219.28;;;4.84
61390;BMP280;47260;48.274;19.814;2023-03-23T00:28:04;99219.72;;;4.83
61390;BMP280;47260;48.274;19.814;2023-03-23T00:29:35;99226.41;;;4.69
61390;BMP280;47260;48.274;19.814;2023-03-23T00:31:08;99219.50;;;4.63
61390;BMP280;47260;48.274;19.814;2023-03-23T00:32:40;99224.38;;;4.64
61390;BMP280;47260;48.274;19.814;2023-03-23T00:34:14;99224.97;;;4.59
61390;BMP280;47260;48.274;19.814;2023-03-23T00:35:49;99230.41;;;4.56
61390;BMP280;47260;48.274;19.814;2023-03-23T00:37:22;99220.25;;;4.54
61390;BMP280;47260;48.274;19.814;2023-03-23T00:38:56;99224.28;;;4.50
61390;BMP280;47260;48.274;19.814;2023-03-23T00:40:28;99220.88;;;4.49
61390;BMP280;47260;48.274;19.814;2023-03-23T00:42:00;99224.69;;;4.48
61390;BMP280;47260;48.274;19.814;2023-03-23T00:43:33;99215.56;;;4.49
61390;BMP280;47260;48.274;19.814;2023-03-23T00:45:07;99220.88;;;4.49
61390;BMP280;47260;48.274;19.814;2023-03-23T00:46:40;99218.94;;;4.41
61390;BMP280;47260;48.274;19.814;2023-03-23T00:48:15;99214.56;;;4.29
61390;BMP280;47260;48.274;19.814;2023-03-23T00:49:47;99214.44;;;4.23
61390;BMP280;47260;48.274;19.814;2023-03-23T00:51:20;99206.88;;;4.22
61390;BMP280;47260;48.274;19.814;2023-03-23T00:52:52;99206.16;;;4.21
61390;BMP280;47260;48.274;19.814;2023-03-23T00:54:27;99210.75;;;4.21
61390;BMP280;47260;48.274;19.814;2023-03-23T00:55:59;99198.19;;;4.21
61390;BMP280;47260;48.274;19.814;2023-03-23T00:57:30;99203.06;;;4.23
61390;BMP280;47260;48.274;19.814;2023-03-23T00:59:02;99201.28;;;4.20
61390;BMP280;47260;48.274;19.814;2023-03-23T01:00:34;99203.06;;;4.23
61390;BMP280;47260;48.274;19.814;2023-03-23T01:02:06;99200.97;;;4.27
61390;BMP280;47260;48.274;19.814;2023-03-23T01:03:39;99203.63;;;4.27
61390;BMP280;47260;48.274;19.814;2023-03-23T01:05:10;99208.09;;;4.21
61390;BMP280;47260;48.274;19.814;2023-03-23T01:06:43;99209.41;;;4.16
61390;BMP280;47260;48.274;19.814;2023-03-23T01:08:14;99200.13;;;4.11
61390;BMP280;47260;48.274;19.814;2023-03-23T01:09:48;99195.69;;;4.08
61390;BMP280;47260;48.274;19.814;2023-03-23T01:11:19;99198.06;;;4.06
61390;BMP280;47260;48.274;19.814;2023-03-23T01:12:51;99194.81;;;4.02
61390;BMP280;47260;48.274;19.814;2023-03-23T01:14:22;99195.84;;;3.96
61390;BMP280;47260;48.274;19.814;2023-03-23T01:15:55;99193.81;;;3.91
61390;BMP280;47260;48.274;19.814;2023-03-23T01:17:27;99186.41;;;3.86
61390;BMP280;47260;48.274;19.814;2023-03-23T01:18:58;99189.53;;;3.84
61390;BMP280;47260;48.274;19.814;2023-03-23T01:20:31;99197.19;;;3.82
61390;BMP280;47260;48.274;19.814;2023-03-23T01:22:03;99188.50;;;3.82
61390;BMP280;47260;48.274;19.814;2023-03-23T01:23:35;99184.97;;;3.85
61390;BMP280;47260;48.274;19.814;2023-03-23T01:25:09;99183.06;;;3.85
61390;BMP280;47260;48.274;19.814;2023-03-23T01:26:41;99181.44;;;3.88
61390;BMP280;47260;48.274;19.814;2023-03-23T01:28:13;99187.31;;;3.92
61390;BMP280;47260;48.274;19.814;2023-03-23T01:29:45;99183.19;;;3.91
61390;BMP280;47260;48.274;19.814;2023-03-23T01:31:18;99184.66;;;3.92
61390;BMP280;47260;48.274;19.814;2023-03-23T01:32:50;99181.72;;;3.90
61390;BMP280;47260;48.274;19.814;2023-03-23T01:34:22;99180.41;;;3.85
61390;BMP280;47260;48.274;19.814;2023-03-23T01:35:54;99187.16;;;3.77
61390;BMP280;47260;48.274;19.814;2023-03-23T01:37:25;99180.53;;;3.73
61390;BMP280;47260;48.274;19.814;2023-03-23T01:38:59;99190.16;;;3.70
61390;BMP280;47260;48.274;19.814;2023-03-23T01:40:34;99187.03;;;3.63
61390;BMP280;47260;48.274;19.814;2023-03-23T01:42:07;99182.00;;;3.65
61390;BMP280;47260;48.274;19.814;2023-03-23T01:43:54;99186.00;;;3.69
61390;BMP280;47260;48.274;19.814;2023-03-23T01:45:31;99187.00;;;3.72
61390;BMP280;47260;48.274;19.814;2023-03-23T01:47:05;99183.47;;;3.75
61390;BMP280;47260;48.274;19.814;2023-03-23T01:48:38;99182.28;;;3.76
61390;BMP280;47260;48.274;19.814;2023-03-23T01:50:10;99182.91;;;3.80
61390;BMP280;47260;48.274;19.814;2023-03-23T01:51:45;99188.03;;;3.83
61390;BMP280;47260;48.274;19.814;2023-03-23T01:53:18;99185.84;;;3.82
61390;BMP280;47260;48.274;19.814;2023-03-23T01:54:52;99185.38;;;3.83
61390;BMP280;47260;48.274;19.814;2023-03-23T01:56:31;99187.00;;;3.81
61390;BMP280;47260;48.274;19.814;2023-03-23T01:58:09;99186.72;;;3.79
61390;BMP280;47260;48.274;19.814;2023-03-23T01:59:43;99192.75;;;3.79
61390;BMP280;47260;48.274;19.814;2023-03-23T02:01:20;99183.19;;;3.73
61390;BMP280;47260;48.274;19.814;2023-03-23T02:02:55;99192.59;;;3.74
61390;BMP280;47260;48.274;19.814;2023-03-23T02:04:28;99190.41;;;3.72
61390;BMP280;47260;48.274;19.814;2023-03-23T02:06:02;99191.44;;;3.75
61390;BMP280;47260;48.274;19.814;2023-03-23T02:07:41;99188.78;;;3.75
61390;BMP280;47260;48.274;19.814;2023-03-23T02:09:14;99185.38;;;3.74
61390;BMP280;47260;48.274;19.814;2023-03-23T02:10:47;99180.53;;;3.73
61390;BMP280;47260;48.274;19.814;2023-03-23T02:12:21;99177.75;;;3.67
61390;BMP280;47260;48.274;19.814;2023-03-23T02:13:55;99182.88;;;3.62
61390;BMP280;47260;48.274;19.814;2023-03-23T02:15:32;99182.72;;;3.56
61390;BMP280;47260;48.274;19.814;2023-03-23T02:17:08;99176.69;;;3.56
61390;BMP280;47260;48.274;19.814;2023-03-23T02:18:50;99185.97;;;3.51
61390;BMP280;47260;48.274;19.814;2023-03-23T02:20:34;99189.94;;;3.47
61390;BMP280;47260;48.274;19.814;2023-03-23T02:22:35;99194.06;;;3.48
61390;BMP280;47260;48.274;19.814;2023-03-23T02:26:35;99201.44;;;3.43
61390;BMP280;47260;48.274;19.814;2023-03-23T02:28:29;99198.34;;;3.36
61390;BMP280;47260;48.274;19.814;2023-03-23T02:30:17;99203.38;;;3.43
61390;BMP280;47260;48.274;19.814;2023-03-23T02:32:08;99205.72;;;3.41
61390;BMP280;47260;48.274;19.814;2023-03-23T02:33:46;99215.00;;;3.36
61390;BMP280;47260;48.274;19.814;2023-03-23T02:35:21;99202.31;;;3.31
61390;BMP280;47260;48.274;19.814;2023-03-23T02:36:58;99203.16;;;3.28
61390;BMP280;47260;48.274;19.814;2023-03-23T02:38:34;99200.09;;;3.30
61390;BMP280;47260;48.274;19.814;2023-03-23T02:40:09;99199.66;;;3.31
61390;BMP280;47260;48.274;19.814;2023-03-23T02:41:47;99199.22;;;3.33
61390;BMP280;47260;48.274;19.814;2023-03-23T02:43:22;99203.78;;;3.32
61390;BMP280;47260;48.274;19.814;2023-03-23T02:44:57;99204.53;;;3.33
61390;BMP280;47260;48.274;19.814;2023-03-23T02:46:31;99204.09;;;3.34
61390;BMP280;47260;48.274;19.814;2023-03-23T02:48:06;99199.06;;;3.36
61390;BMP280;47260;48.274;19.814;2023-03-23T02:49:41;99202.91;;;3.35
61390;BMP280;47260;48.274;19.814;2023-03-23T02:51:15;99198.66;;;3.38
61390;BMP280;47260;48.274;19.814;2023-03-23T02:52:48;99194.38;;;3.40
61390;BMP280;47260;48.274;19.814;2023-03-23T02:54:20;99200.28;;;3.45
61390;BMP280;47260;48.274;19.814;2023-03-23T02:55:55;99201.44;;;3.43
61390;BMP280;47260;48.274;19.814;2023-03-23T02:57:32;99214.13;;;3.39
61390;BMP280;47260;48.274;19.814;2023-03-23T02:59:07;99208.94;;;3.36
61390;BMP280;47260;48.274;19.814;2023-03-23T03:00:39;99210.72;;;3.30
61390;BMP280;47260;48.274;19.814;2023-03-23T03:02:12;99207.03;;;3.27
61390;BMP280;47260;48.274;19.814;2023-03-23T03:03:45;99208.06;;;3.30
61390;BMP280;47260;48.274;19.814;2023-03-23T03:05:24;99207.31;;;3.29
61390;BMP280;47260;48.274;19.814;2023-03-23T03:07:15;99205.81;;;3.28
61390;BMP280;47260;48.274;19.814;2023-03-23T03:08:52;99206.28;;;3.27
61390;BMP280;47260;48.274;19.814;2023-03-23T03:10:31;99202.56;;;3.24
61390;BMP280;47260;48.274;19.814;2023-03-23T03:12:10;99202.28;;;3.22
61390;BMP280;47260;48.274;19.814;2023-03-23T03:13:47;99216.25;;;3.14
61390;BMP280;47260;48.274;19.814;2023-03-23T03:15:26;99212.16;;;3.13
61390;BMP280;47260;48.274;19.814;2023-03-23T03:17:02;99207.41;;;3.08
61390;BMP280;47260;48.274;19.814;2023-03-23T03:18:38;99213.09;;;2.97
61390;BMP280;47260;48.274;19.814;2023-03-23T03:20:12;99223.94;;;2.81
61390;BMP280;47260;48.274;19.814;2023-03-23T03:21:48;99215.25;;;2.81
61390;BMP280;47260;48.274;19.814;2023-03-23T03:23:27;99213.78;;;2.80
61390;BMP280;47260;48.274;19.814;2023-03-23T03:25:03;99216.84;;;2.78
61390;BMP280;47260;48.274;19.814;2023-03-23T03:26:35;99212.00;;;2.77
61390;BMP280;47260;48.274;19.814;2023-03-23T03:28:24;99211.88;;;2.80
61390;BMP280;47260;48.274;19.814;2023-03-23T03:29:59;99213.59;;;2.74
61390;BMP280;47260;48.274;19.814;2023-03-23T03:31:35;99209.59;;;2.69
61390;BMP280;47260;48.274;19.814;2023-03-23T03:33:07;99215.94;;;2.72
61390;BMP280;47260;48.274;19.814;2023-03-23T03:34:40;99214.72;;;2.64
61390;BMP280;47260;48.274;19.814;2023-03-23T03:36:15;99215.13;;;2.53
61390;BMP280;47260;48.274;19.814;2023-03-23T03:37:49;99207.41;;;2.46
61390;BMP280;47260;48.274;19.814;2023-03-23T03:39:22;99204.91;;;2.43
61390;BMP280;47260;48.274;19.814;2023-03-23T03:40:55;99216.22;;;2.43
61390;BMP280;47260;48.274;19.814;2023-03-23T03:42:27;99211.06;;;2.40
61390;BMP280;47260;48.274;19.814;2023-03-23T03:43:59;99210.44;;;2.36
61390;BMP280;47260;48.274;19.814;2023-03-23T03:45:31;99220.88;;;2.30
61390;BMP280;47260;48.274;19.814;2023-03-23T03:47:02;99222.78;;;2.30
61390;BMP280;47260;48.274;19.814;2023-03-23T03:48:35;99204.09;;;2.33
61390;BMP280;47260;48.274;19.814;2023-03-23T03:50:08;99212.22;;;2.39
61390;BMP280;47260;48.274;19.814;2023-03-23T03:51:39;99210.50;;;2.45
61390;BMP280;47260;48.274;19.814;2023-03-23T03:53:17;99209.31;;;2.46
61390;BMP280;47260;48.274;19.814;2023-03-23T03:54:49;99215.66;;;2.48
61390;BMP280;47260;48.274;19.814;2023-03-23T03:56:21;99211.31;;;2.54
61390;BMP280;47260;48.274;19.814;2023-03-23T03:58:06;99212.06;;;2.55
61390;BMP280;47260;48.274;19.814;2023-03-23T03:59:56;99214.81;;;2.51
61390;BMP280;47260;48.274;19.814;2023-03-23T04:01:48;99215.19;;;2.41
61390;BMP280;47260;48.274;19.814;2023-03-23T04:03:24;99216.06;;;2.38
61390;BMP280;47260;48.274;19.814;2023-03-23T04:05:21;99215.63;;;2.39
61390;BMP280;47260;48.274;19.814;2023-03-23T04:06:53;99217.84;;;2.41
61390;BMP280;47260;48.274;19.814;2023-03-23T04:08:27;99210.94;;;2.43
61390;BMP280;47260;48.274;19.814;2023-03-23T04:09:59;99210.06;;;2.46
61390;BMP280;47260;48.274;19.814;2023-03-23T04:11:30;99216.41;;;2.49
61390;BMP280;47260;48.274;19.814;2023-03-23T04:13:22;99219.69;;;2.53
61390;BMP280;47260;48.274;19.814;2023-03-23T04:15:09;99209.72;;;2.57
61390;BMP280;47260;48.274;19.814;2023-03-23T04:16:41;99207.06;;;2.57
61390;BMP280;47260;48.274;19.814;2023-03-23T04:18:12;99215.00;;;2.57
61390;BMP280;47260;48.274;19.814;2023-03-23T04:19:46;99215.25;;;2.50
61390;BMP280;47260;48.274;19.814;2023-03-23T04:21:18;99210.63;;;2.41
61390;BMP280;47260;48.274;19.814;2023-03-23T04:22:53;99201.34;;;2.37
61390;BMP280;47260;48.274;19.814;2023-03-23T04:24:27;99196.03;;;2.37
61390;BMP280;47260;48.274;19.814;2023-03-23T04:26:02;99202.69;;;2.41
61390;BMP280;47260;48.274;19.814;2023-03-23T04:27:44;99204.03;;;2.46
61390;BMP280;47260;48.274;19.814;2023-03-23T04:29:17;99198.91;;;2.51
61390;BMP280;47260;48.274;19.814;2023-03-23T04:31:28;99211.75;;;2.62
61390;BMP280;47260;48.274;19.814;2023-03-23T04:33:23;99205.63;;;2.65
61390;BMP280;47260;48.274;19.814;2023-03-23T04:34:58;99209.31;;;2.67
61390;BMP280;47260;48.274;19.814;2023-03-23T04:36:34;99204.41;;;2.66
61390;BMP280;47260;48.274;19.814;2023-03-23T04:38:15;99212.38;;;2.66
61390;BMP280;47260;48.274;19.814;2023-03-23T04:39:51;99213.22;;;2.63
61390;BMP280;47260;48.274;19.814;2023-03-23T04:41:31;99210.31;;;2.61
61390;BMP280;47260;48.274;19.814;2023-03-23T04:43:13;99209.41;;;2.64
61390;BMP280;47260;48.274;19.814;2023-03-23T04:44:58;99212.81;;;2.64
61390;BMP280;47260;48.274;19.814;2023-03-23T04:46:37;99220.16;;;2.60
61390;BMP280;47260;48.274;19.814;2023-03-23T04:48:12;99214.41;;;2.62
61390;BMP280;47260;48.274;19.814;2023-03-23T04:49:56;99213.56;;;2.65
61390;BMP280;47260;48.274;19.814;2023-03-23T04:51:37;99210.03;;;2.68
61390;BMP280;47260;48.274;19.814;2023-03-23T04:53:26;99215.88;;;2.63
61390;BMP280;47260;48.274;19.814;2023-03-23T04:55:00;99210.31;;;2.61
61390;BMP280;47260;48.274;19.814;2023-03-23T04:56:33;99205.75;;;2.61
61390;BMP280;47260;48.274;19.814;2023-03-23T04:58:11;99204.00;;;2.67
61390;BMP280;47260;48.274;19.814;2023-03-23T05:00:06;99210.09;;;2.77
61390;BMP280;47260;48.274;19.814;2023-03-23T05:01:44;99206.03;;;2.94
61390;BMP280;47260;48.274;19.814;2023-03-23T05:03:22;99210.66;;;3.12
61390;BMP280;47260;48.274;19.814;2023-03-23T05:04:57;99204.66;;;3.29
61390;BMP280;47260;48.274;19.814;2023-03-23T05:06:32;99217.94;;;3.38
61390;BMP280;47260;48.274;19.814;2023-03-23T05:08:08;99214.88;;;3.40
61390;BMP280;47260;48.274;19.814;2023-03-23T05:09:46;99215.31;;;3.48
61390;BMP280;47260;48.274;19.814;2023-03-23T05:11:20;99223.41;;;3.53
61390;BMP280;47260;48.274;19.814;2023-03-23T05:12:53;99223.16;;;3.60
61390;BMP280;47260;48.274;19.814;2023-03-23T05:14:25;99227.13;;;3.74
61390;BMP280;47260;48.274;19.814;2023-03-23T05:16:07;99238.03;;;3.94
61390;BMP280;47260;48.274;19.814;2023-03-23T05:17:42;99228.78;;;4.07
61390;BMP280;47260;48.274;19.814;2023-03-23T05:19:18;99236.13;;;4.22
61390;BMP280;47260;48.274;19.814;2023-03-23T05:20:51;99236.56;;;4.29
61390;BMP280;47260;48.274;19.814;2023-03-23T05:22:27;99234.94;;;4.32
61390;BMP280;47260;48.274;19.814;2023-03-23T05:23:59;99238.00;;;4.39
61390;BMP280;47260;48.274;19.814;2023-03-23T05:25:33;99238.59;;;4.43
61390;BMP280;47260;48.274;19.814;2023-03-23T05:27:15;99235.47;;;4.36
61390;BMP280;47260;48.274;19.814;2023-03-23T05:28:51;99230.06;;;4.30
61390;BMP280;47260;48.274;19.814;2023-03-23T05:30:27;99233.44;;;4.40
61390;BMP280;47260;48.274;19.814;2023-03-23T05:32:01;99232.06;;;4.53
61390;BMP280;47260;48.274;19.814;2023-03-23T05:33:37;99237.47;;;4.77
61390;BMP280;47260;48.274;19.814;2023-03-23T05:35:38;99240.81;;;5.19
61390;BMP280;47260;48.274;19.814;2023-03-23T05:37:11;99250.31;;;5.58
61390;BMP280;47260;48.274;19.814;2023-03-23T05:38:52;99251.72;;;6.07
61390;BMP280;47260;48.274;19.814;2023-03-23T05:40:26;99253.69;;;6.35
61390;BMP280;47260;48.274;19.814;2023-03-23T05:42:03;99251.19;;;6.76
61390;BMP280;47260;48.274;19.814;2023-03-23T05:43:49;99262.81;;;6.93
61390;BMP280;47260;48.274;19.814;2023-03-23T05:45:29;99254.53;;;7.11
61390;BMP280;47260;48.274;19.814;2023-03-23T05:47:00;99250.53;;;7.61
61390;BMP280;47260;48.274;19.814;2023-03-23T05:48:32;99254.63;;;8.02
61390;BMP280;47260;48.274;19.814;2023-03-23T05:50:06;99259.53;;;8.09
61390;BMP280;47260;48.274;19.814;2023-03-23T05:51:39;99258.06;;;8.34
61390;BMP280;47260;48.274;19.814;2023-03-23T05:53:11;99251.28;;;8.75
61390;BMP280;47260;48.274;19.814;2023-03-23T05:54:44;99266.13;;;8.76
61390;BMP280;47260;48.274;19.814;2023-03-23T05:56:16;99254.97;;;9.26
61390;BMP280;47260;48.274;19.814;2023-03-23T05:58:03;99261.66;;;9.63
61390;BMP280;47260;48.274;19.814;2023-03-23T05:59:41;99261.97;;;10.15
61390;BMP280;47260;48.274;19.814;2023-03-23T06:01:19;99265.13;;;10.52
61390;BMP280;47260;48.274;19.814;2023-03-23T06:02:54;99264.41;;;10.46
61390;BMP280;47260;48.274;19.814;2023-03-23T06:04:33;99275.75;;;11.02
61390;BMP280;47260;48.274;19.814;2023-03-23T06:06:13;99266.50;;;11.49
61390;BMP280;47260;48.274;19.814;2023-03-23T06:08:11;99273.28;;;11.61
61390;BMP280;47260;48.274;19.814;2023-03-23T06:09:43;99271.09;;;12.25
61390;BMP280;47260;48.274;19.814;2023-03-23T06:11:27;99265.19;;;12.56
61390;BMP280;47260;48.274;19.814;2023-03-23T06:13:25;99272.50;;;12.79
61390;BMP280;47260;48.274;19.814;2023-03-23T06:15:01;99271.16;;;13.10
61390;BMP280;47260;48.274;19.814;2023-03-23T06:16:54;99268.84;;;13.20
61390;BMP280;47260;48.274;19.814;2023-03-23T06:18:26;99276.13;;;13.43
61390;BMP280;47260;48.274;19.814;2023-03-23T06:20:14;99278.75;;;13.49
61390;BMP280;47260;48.274;19.814;2023-03-23T06:21:46;99275.28;;;12.74
61390;BMP280;47260;48.274;19.814;2023-03-23T06:23:27;99276.94;;;11.99
61390;BMP280;47260;48.274;19.814;2023-03-23T06:25:00;99279.19;;;10.92
61390;BMP280;47260;48.274;19.814;2023-03-23T06:26:40;99272.69;;;10.37
61390;BMP280;47260;48.274;19.814;2023-03-23T06:28:19;99263.19;;;9.92
61390;BMP280;47260;48.274;19.814;2023-03-23T06:29:54;99263.06;;;9.53
61390;BMP280;47260;48.274;19.814;2023-03-23T06:31:28;99267.25;;;9.60
61390;BMP280;47260;48.274;19.814;2023-03-23T06:33:00;99268.13;;;9.35
61390;BMP280;47260;48.274;19.814;2023-03-23T06:34:58;99270.31;;;9.25
61390;BMP280;47260;48.274;19.814;2023-03-23T06:36:52;99271.97;;;9.17
61390;BMP280;47260;48.274;19.814;2023-03-23T06:38:33;99264.56;;;9.60
61390;BMP280;47260;48.274;19.814;2023-03-23T06:40:07;99273.97;;;9.28
61390;BMP280;47260;48.274;19.814;2023-03-23T06:41:43;99278.91;;;9.51
61390;BMP280;47260;48.274;19.814;2023-03-23T06:43:14;99278.00;;;9.71
61390;BMP280;47260;48.274;19.814;2023-03-23T06:44:49;99289.03;;;9.95
61390;BMP280;47260;48.274;19.814;2023-03-23T06:46:22;99293.81;;;9.63
61390;BMP280;47260;48.274;19.814;2023-03-23T06:47:57;99293.53;;;9.56
61390;BMP280;47260;48.274;19.814;2023-03-23T06:49:31;99284.66;;;9.22
61390;BMP280;47260;48.274;19.814;2023-03-23T06:51:12;99288.03;;;9.17
61390;BMP280;47260;48.274;19.814;2023-03-23T06:52:50;99291.28;;;8.84
61390;BMP280;47260;48.274;19.814;2023-03-23T06:54:23;99289.88;;;8.94
61390;BMP280;47260;48.274;19.814;2023-03-23T06:55:55;99287.13;;;8.89
61390;BMP280;47260;48.274;19.814;2023-03-23T06:57:27;99278.84;;;8.87
61390;BMP280;47260;48.274;19.814;2023-03-23T06:59:00;99286.31;;;9.14
61390;BMP280;47260;48.274;19.814;2023-03-23T07:00:32;99295.41;;;9.33
61390;BMP280;47260;48.274;19.814;2023-03-23T07:02:04;99292.03;;;9.38
61390;BMP280;47260;48.274;19.814;2023-03-23T07:03:38;99299.59;;;9.40
61390;BMP280;47260;48.274;19.814;2023-03-23T07:05:12;99296.31;;;9.19
61390;BMP280;47260;48.274;19.814;2023-03-23T07:06:45;99297.09;;;9.25
61390;BMP280;47260;48.274;19.814;2023-03-23T07:08:18;99298.34;;;9.35
61390;BMP280;47260;48.274;19.814;2023-03-23T07:09:56;99299.97;;;9.80
61390;BMP280;47260;48.274;19.814;2023-03-23T07:11:28;99291.50;;;10.15
61390;BMP280;47260;48.274;19.814;2023-03-23T07:13:05;99292.47;;;10.18
61390;BMP280;47260;48.274;19.814;2023-03-23T07:14:47;99293.41;;;10.70
61390;BMP280;47260;48.274;19.814;2023-03-23T07:16:19;99298.69;;;11.14
61390;BMP280;47260;48.274;19.814;2023-03-23T07:17:51;99297.25;;;11.59
61390;BMP280;47260;48.274;19.814;2023-03-23T07:19:46;99307.44;;;12.42
61390;BMP280;47260;48.274;19.814;2023-03-23T07:21:20;99302.28;;;13.30
61390;BMP280;47260;48.274;19.814;2023-03-23T07:22:53;99302.97;;;13.73
61390;BMP280;47260;48.274;19.814;2023-03-23T07:24:43;99309.25;;;14.52
61390;BMP280;47260;48.274;19.814;2023-03-23T07:26:29;99307.38;;;15.66
61390;BMP280;47260;48.274;19.814;2023-03-23T07:28:03;99309.34;;;16.07
61390;BMP280;47260;48.274;19.814;2023-03-23T07:29:35;99308.06;;;16.08
61390;BMP280;47260;48.274;19.814;2023-03-23T07:31:14;99304.66;;;16.07
61390;BMP280;47260;48.274;19.814;2023-03-23T07:32:46;99315.22;;;15.98
61390;BMP280;47260;48.274;19.814;2023-03-23T07:34:18;99308.03;;;15.59
61390;BMP280;47260;48.274;19.814;2023-03-23T07:36:04;99317.53;;;16.14
61390;BMP280;47260;48.274;19.814;2023-03-23T07:37:37;99314.78;;;16.35
61390;BMP280;47260;48.274;19.814;2023-03-23T07:39:09;99310.34;;;15.96
61390;BMP280;47260;48.274;19.814;2023-03-23T07:40:41;99313.19;;;16.11
61390;BMP280;47260;48.274;19.814;2023-03-23T07:42:18;99311.16;;;15.84
61390;BMP280;47260;48.274;19.814;2023-03-23T07:43:59;99306.97;;;15.42
61390;BMP280;47260;48.274;19.814;2023-03-23T07:45:40;99304.84;;;15.01
61390;BMP280;47260;48.274;19.814;2023-03-23T07:47:13;99311.03;;;15.89
61390;BMP280;47260;48.274;19.814;2023-03-23T07:48:45;99307.38;;;15.66
61390;BMP280;47260;48.274;19.814;2023-03-23T07:50:17;99311.31;;;15.45
61390;BMP280;47260;48.274;19.814;2023-03-23T07:51:53;99303.19;;;15.45
61390;BMP280;47260;48.274;19.814;2023-03-23T07:53:26;99312.78;;;15.87
61390;BMP280;47260;48.274;19.814;2023-03-23T07:55:09;99317.28;;;16.33
61390;BMP280;47260;48.274;19.814;2023-03-23T07:57:10;99317.53;;;16.71
61390;BMP280;47260;48.274;19.814;2023-03-23T07:58:45;99320.88;;;16.00
61390;BMP280;47260;48.274;19.814;2023-03-23T08:00:19;99314.25;;;15.67
61390;BMP280;47260;48.274;19.814;2023-03-23T08:01:54;99316.81;;;15.93
61390;BMP280;47260;48.274;19.814;2023-03-23T08:04:03;99313.31;;;16.06
61390;BMP280;47260;48.274;19.814;2023-03-23T08:05:57;99311.91;;;16.12
61390;BMP280;47260;48.274;19.814;2023-03-23T08:07:54;99313.00;;;16.38
61390;BMP280;47260;48.274;19.814;2023-03-23T08:09:47;99313.53;;;15.87
61390;BMP280;47260;48.274;19.814;2023-03-23T08:11:38;99310.13;;;16.79
61390;BMP280;47260;48.274;19.814;2023-03-23T08:13:49;99313.97;;;16.83
61390;BMP280;47260;48.274;19.814;2023-03-23T08:15:39;99312.00;;;16.56
61390;BMP280;47260;48.274;19.814;2023-03-23T08:17:23;99316.47;;;16.46
61390;BMP280;47260;48.274;19.814;2023-03-23T08:19:14;99304.88;;;16.09
61390;BMP280;47260;48.274;19.814;2023-03-23T08:21:23;99310.28;;;16.09
61390;BMP280;47260;48.274;19.814;2023-03-23T08:23:16;99307.47;;;16.22
61390;BMP280;47260;48.274;19.814;2023-03-23T08:24:48;99304.34;;;16.39
61390;BMP280;47260;48.274;19.814;2023-03-23T08:26:55;99306.66;;;17.14
61390;BMP280;47260;48.274;19.814;2023-03-23T08:28:49;99307.88;;;16.98
61390;BMP280;47260;48.274;19.814;2023-03-23T08:30:45;99302.69;;;17.15
61390;BMP280;47260;48.274;19.814;2023-03-23T08:32:41;99304.41;;;18.01
61390;BMP280;47260;48.274;19.814;2023-03-23T08:34:33;99300.53;;;18.49
61390;BMP280;47260;48.274;19.814;2023-03-23T08:36:05;99297.38;;;18.67
61390;BMP280;47260;48.274;19.814;2023-03-23T08:37:45;99297.03;;;18.63
61390;BMP280;47260;48.274;19.814;2023-03-23T08:39:37;99298.94;;;18.31
61390;BMP280;47260;48.274;19.814;2023-03-23T08:41:31;99292.47;;;18.73
61390;BMP280;47260;48.274;19.814;2023-03-23T08:43:22;99283.44;;;18.63
61390;BMP280;47260;48.274;19.814;2023-03-23T08:45:19;99291.53;;;18.78
61390;BMP280;47260;48.274;19.814;2023-03-23T08:47:12;99293.13;;;18.42
61390;BMP280;47260;48.274;19.814;2023-03-23T08:48:59;99300.66;;;18.98
61390;BMP280;47260;48.274;19.814;2023-03-23T08:50:43;99297.56;;;19.02
61390;BMP280;47260;48.274;19.814;2023-03-23T08:52:24;99297.09;;;19.20
61390;BMP280;47260;48.274;19.814;2023-03-23T08:54:06;99294.09;;;19.09
61390;BMP280;47260;48.274;19.814;2023-03-23T08:56:07;99296.50;;;19.29
61390;BMP280;47260;48.274;19.814;2023-03-23T08:58:05;99297.47;;;18.37
61390;BMP280;47260;48.274;19.814;2023-03-23T08:59:56;99287.63;;;18.57
61390;BMP280;47260;48.274;19.814;2023-03-23T09:01:53;99288.13;;;19.02
61390;BMP280;47260;48.274;19.814;2023-03-23T09:03:46;99292.41;;;19.87
61390;BMP280;47260;48.274;19.814;2023-03-23T09:05:36;99289.94;;;20.49
61390;BMP280;47260;48.274;19.814;2023-03-23T09:07:30;99282.03;;;19.68
61390;BMP280;47260;48.274;19.814;2023-03-23T09:09:02;99277.75;;;19.41
61390;BMP280;47260;48.274;19.814;2023-03-23T09:10:36;99278.31;;;19.07
61390;BMP280;47260;48.274;19.814;2023-03-23T09:12:11;99280.31;;;18.74
61390;BMP280;47260;48.274;19.814;2023-03-23T09:13:44;99282.78;;;18.87
61390;BMP280;47260;48.274;19.814;2023-03-23T09:15:17;99275.00;;;19.16
61390;BMP280;47260;48.274;19.814;2023-03-23T09:16:50;99284.03;;;18.54
61390;BMP280;47260;48.274;19.814;2023-03-23T09:18:21;99284.03;;;18.54
61390;BMP280;47260;48.274;19.814;2023-03-23T09:19:53;99285.53;;;18.25
61390;BMP280;47260;48.274;19.814;2023-03-23T09:21:26;99286.31;;;18.03
61390;BMP280;47260;48.274;19.814;2023-03-23T09:22:58;99280.97;;;18.35
61390;BMP280;47260;48.274;19.814;2023-03-23T09:24:30;99273.75;;;18.30